sensor_id;sensor_type;location;lat;lon;timestamp;P1;durP1;ratioP1;P2;durP2;ratioP2
28605;SDS011;46498;49.968;7.754;2023-03-14T00:04:25;11.27;;;2.03;;
28605;SDS011;46498;49.968;7.754;2023-03-14T00:09:26;11.50;;;2.30;;
28605;SDS011;46498;49.968;7.754;2023-03-14T00:14:27;9.90;;;2.65;;
28605;SDS011;46498;49.968;7.754;2023-03-14T00:19:28;12.43;;;3.37;;
28605;SDS011;46498;49.968;7.754;2023-03-14T00:24:29;11.38;;;3.20;;
28605;SDS011;46498;49.968;7.754;2023-03-14T00:29:29;12.50;;;3.22;;
28605;SDS011;46498;49.968;7.754;2023-03-14T00:34:31;14.20;;;3.87;;
28605;SDS011;46498;49.968;7.754;2023-03-14T00:39:34;13.02;;;3.28;;
28605;SDS011;46498;49.968;7.754;2023-03-14T00:44:35;13.60;;;3.67;;
28605;SDS011;46498;49.968;7.754;2023-03-14T00:49:40;9.00;;;3.25;;
28605;SDS011;46498;49.968;7.754;2023-03-14T00:54:43;14.10;;;3.55;;
28605;SDS011;46498;49.968;7.754;2023-03-14T00:59:44;11.43;;;3.05;;
28605;SDS011;46498;49.968;7.754;2023-03-14T01:04:47;10.65;;;3.10;;
28605;SDS011;46498;49.968;7.754;2023-03-14T01:09:51;15.45;;;2.92;;
28605;SDS011;46498;49.968;7.754;2023-03-14T01:14:52;12.00;;;2.70;;
28605;SDS011;46498;49.968;7.754;2023-03-14T01:19:53;13.38;;;2.70;;
28605;SDS011;46498;49.968;7.754;2023-03-14T01:24:54;16.58;;;4.03;;
28605;SDS011;46498;49.968;7.754;2023-03-14T01:29:55;17.67;;;4.05;;
28605;SDS011;46498;49.968;7.754;2023-03-14T01:34:56;15.35;;;2.97;;
28605;SDS011;46498;49.968;7.754;2023-03-14T01:39:57;10.68;;;3.28;;
28605;SDS011;46498;49.968;7.754;2023-03-14T01:44:59;11.48;;;3.35;;
28605;SDS011;46498;49.968;7.754;2023-03-14T01:50:04;12.35;;;2.30;;
28605;SDS011;46498;49.968;7.754;2023-03-14T01:55:12;11.90;;;2.78;;
28605;SDS011;46498;49.968;7.754;2023-03-14T02:00:19;5.37;;;1.92;;
28605;SDS011;46498;49.968;7.754;2023-03-14T02:05:24;6.55;;;2.40;;
28605;SDS011;46498;49.968;7.754;2023-03-14T02:10:40;15.10;;;2.97;;
28605;SDS011;46498;49.968;7.754;2023-03-14T02:15:44;11.32;;;2.62;;
28605;SDS011;46498;49.968;7.754;2023-03-14T02:21:40;8.35;;;2.65;;
28605;SDS011;46498;49.968;7.754;2023-03-14T02:35:28;10.65;;;2.67;;
28605;SDS011;46498;49.968;7.754;2023-03-14T02:40:32;9.82;;;2.70;;
28605;SDS011;46498;49.968;7.754;2023-03-14T02:45:34;12.18;;;2.70;;
28605;SDS011;46498;49.968;7.754;2023-03-14T02:50:38;6.50;;;1.98;;
28605;SDS011;46498;49.968;7.754;2023-03-14T02:55:43;8.32;;;2.12;;
28605;SDS011;46498;49.968;7.754;2023-03-14T03:00:46;12.27;;;2.35;;
28605;SDS011;46498;49.968;7.754;2023-03-14T03:05:50;9.75;;;2.67;;
28605;SDS011;46498;49.968;7.754;2023-03-14T03:10:52;8.18;;;1.70;;
28605;SDS011;46498;49.968;7.754;2023-03-14T03:15:54;13.05;;;2.30;;
28605;SDS011;46498;49.968;7.754;2023-03-14T03:20:54;5.37;;;1.87;;
28605;SDS011;46498;49.968;7.754;2023-03-14T03:25:56;12.85;;;2.60;;
28605;SDS011;46498;49.968;7.754;2023-03-14T03:30:57;7.22;;;2.10;;
28605;SDS011;46498;49.968;7.754;2023-03-14T03:35:58;13.45;;;2.15;;
28605;SDS011;46498;49.968;7.754;2023-03-14T03:41:06;12.37;;;2.22;;
28605;SDS011;46498;49.968;7.754;2023-03-14T03:46:08;11.45;;;2.25;;
28605;SDS011;46498;49.968;7.754;2023-03-14T03:51:13;8.52;;;1.83;;
28605;SDS011;46498;49.968;7.754;2023-03-14T03:56:16;9.55;;;1.98;;
28605;SDS011;46498;49.968;7.754;2023-03-14T04:01:18;9.80;;;1.70;;
28605;SDS011;46498;49.968;7.754;2023-03-14T04:06:21;23.05;;;8.85;;
28605;SDS011;46498;49.968;7.754;2023-03-14T04:11:23;6.97;;;1.10;;
28605;SDS011;46498;49.968;7.754;2023-03-14T04:16:49;8.70;;;1.83;;
28605;SDS011;46498;49.968;7.754;2023-03-14T04:21:52;7.75;;;1.40;;
28605;SDS011;46498;49.968;7.754;2023-03-14T04:26:55;8.07;;;1.27;;
28605;SDS011;46498;49.968;7.754;2023-03-14T04:31:56;7.43;;;1.40;;
28605;SDS011;46498;49.968;7.754;2023-03-14T04:36:57;5.35;;;1.10;;
28605;SDS011;46498;49.968;7.754;2023-03-14T04:42:04;7.20;;;1.12;;
28605;SDS011;46498;49.968;7.754;2023-03-14T04:47:06;6.03;;;1.10;;
28605;SDS011;46498;49.968;7.754;2023-03-14T04:52:08;6.95;;;1.35;;
28605;SDS011;46498;49.968;7.754;2023-03-14T04:57:10;8.10;;;1.20;;
28605;SDS011;46498;49.968;7.754;2023-03-14T05:02:12;6.43;;;2.08;;
28605;SDS011;46498;49.968;7.754;2023-03-14T05:07:28;6.68;;;1.23;;
28605;SDS011;46498;49.968;7.754;2023-03-14T05:12:43;5.07;;;1.00;;
28605;SDS011;46498;49.968;7.754;2023-03-14T05:18:03;2.03;;;0.75;;
28605;SDS011;46498;49.968;7.754;2023-03-14T05:24:08;3.67;;;1.00;;
28605;SDS011;46498;49.968;7.754;2023-03-14T05:29:27;5.05;;;1.42;;
28605;SDS011;46498;49.968;7.754;2023-03-14T05:34:40;7.97;;;1.30;;
28605;SDS011;46498;49.968;7.754;2023-03-14T05:39:59;6.45;;;1.08;;
28605;SDS011;46498;49.968;7.754;2023-03-14T05:45:15;5.90;;;1.65;;
28605;SDS011;46498;49.968;7.754;2023-03-14T05:50:30;6.07;;;1.65;;
28605;SDS011;46498;49.968;7.754;2023-03-14T05:55:52;6.80;;;1.85;;
28605;SDS011;46498;49.968;7.754;2023-03-14T06:01:14;3.17;;;1.55;;
28605;SDS011;46498;49.968;7.754;2023-03-14T06:06:27;4.70;;;1.50;;
28605;SDS011;46498;49.968;7.754;2023-03-14T06:11:29;2.58;;;1.20;;
28605;SDS011;46498;49.968;7.754;2023-03-14T06:16:31;4.37;;;1.33;;
28605;SDS011;46498;49.968;7.754;2023-03-14T06:21:33;5.65;;;1.23;;
28605;SDS011;46498;49.968;7.754;2023-03-14T06:26:34;5.07;;;1.40;;
28605;SDS011;46498;49.968;7.754;2023-03-14T06:31:35;3.75;;;1.08;;
28605;SDS011;46498;49.968;7.754;2023-03-14T06:36:38;6.60;;;1.33;;
28605;SDS011;46498;49.968;7.754;2023-03-14T06:41:39;5.60;;;1.40;;
28605;SDS011;46498;49.968;7.754;2023-03-14T06:46:41;4.45;;;1.40;;
28605;SDS011;46498;49.968;7.754;2023-03-14T06:51:42;6.45;;;1.10;;
28605;SDS011;46498;49.968;7.754;2023-03-14T06:56:44;5.53;;;1.08;;
28605;SDS011;46498;49.968;7.754;2023-03-14T07:01:45;5.85;;;1.37;;
28605;SDS011;46498;49.968;7.754;2023-03-14T07:06:46;3.92;;;1.45;;
28605;SDS011;46498;49.968;7.754;2023-03-14T07:11:48;7.53;;;1.52;;
28605;SDS011;46498;49.968;7.754;2023-03-14T07:16:50;6.12;;;1.50;;
28605;SDS011;46498;49.968;7.754;2023-03-14T07:21:52;4.18;;;1.20;;
28605;SDS011;46498;49.968;7.754;2023-03-14T07:26:56;2.97;;;1.30;;
28605;SDS011;46498;49.968;7.754;2023-03-14T07:31:57;4.78;;;1.40;;
28605;SDS011;46498;49.968;7.754;2023-03-14T07:36:58;5.15;;;1.48;;
28605;SDS011;46498;49.968;7.754;2023-03-14T07:41:59;5.25;;;0.95;;
28605;SDS011;46498;49.968;7.754;2023-03-14T07:47:20;5.72;;;1.00;;
28605;SDS011;46498;49.968;7.754;2023-03-14T07:52:21;4.93;;;1.12;;
28605;SDS011;46498;49.968;7.754;2023-03-14T07:57:22;3.08;;;0.90;;
28605;SDS011;46498;49.968;7.754;2023-03-14T08:02:24;3.33;;;1.25;;
28605;SDS011;46498;49.968;7.754;2023-03-14T08:07:25;2.58;;;1.20;;
28605;SDS011;46498;49.968;7.754;2023-03-14T08:12:26;3.35;;;1.20;;
28605;SDS011;46498;49.968;7.754;2023-03-14T08:17:27;2.33;;;0.80;;
28605;SDS011;46498;49.968;7.754;2023-03-14T08:22:29;4.28;;;1.40;;
28605;SDS011;46498;49.968;7.754;2023-03-14T08:27:30;3.78;;;1.02;;
28605;SDS011;46498;49.968;7.754;2023-03-14T08:32:31;3.45;;;1.33;;
28605;SDS011;46498;49.968;7.754;2023-03-14T08:37:33;3.75;;;1.37;;
28605;SDS011;46498;49.968;7.754;2023-03-14T08:42:38;2.45;;;0.98;;
28605;SDS011;46498;49.968;7.754;2023-03-14T08:47:40;2.95;;;0.82;;
28605;SDS011;46498;49.968;7.754;2023-03-14T08:52:41;2.37;;;1.10;;
28605;SDS011;46498;49.968;7.754;2023-03-14T08:57:42;4.10;;;1.23;;
28605;SDS011;46498;49.968;7.754;2023-03-14T09:02:43;5.30;;;1.08;;
28605;SDS011;46498;49.968;7.754;2023-03-14T09:07:44;2.33;;;0.65;;
28605;SDS011;46498;49.968;7.754;2023-03-14T09:12:45;1.77;;;0.70;;
28605;SDS011;46498;49.968;7.754;2023-03-14T09:17:46;4.00;;;1.95;;
28605;SDS011;46498;49.968;7.754;2023-03-14T09:22:47;0.60;;;0.30;;
28605;SDS011;46498;49.968;7.754;2023-03-14T09:27:48;0.25;;;0.13;;
28605;SDS011;46498;49.968;7.754;2023-03-14T09:32:49;2.70;;;0.80;;
28605;SDS011;46498;49.968;7.754;2023-03-14T09:37:50;1.20;;;0.45;;
28605;SDS011;46498;49.968;7.754;2023-03-14T09:42:52;0.93;;;0.20;;
28605;SDS011;46498;49.968;7.754;2023-03-14T09:53:02;0.40;;;0.28;;
28605;SDS011;46498;49.968;7.754;2023-03-14T09:58:11;1.58;;;0.40;;
28605;SDS011;46498;49.968;7.754;2023-03-14T10:03:33;1.20;;;0.37;;
28605;SDS011;46498;49.968;7.754;2023-03-14T10:08:38;3.87;;;2.10;;
28605;SDS011;46498;49.968;7.754;2023-03-14T10:13:47;2.00;;;0.65;;
28605;SDS011;46498;49.968;7.754;2023-03-14T10:22:20;1.15;;;0.37;;
28605;SDS011;46498;49.968;7.754;2023-03-14T10:27:32;0.55;;;0.35;;
28605;SDS011;46498;49.968;7.754;2023-03-14T10:32:36;1.48;;;0.40;;
28605;SDS011;46498;49.968;7.754;2023-03-14T10:37:49;0.70;;;0.30;;
28605;SDS011;46498;49.968;7.754;2023-03-14T10:42:54;2.78;;;1.05;;
28605;SDS011;46498;49.968;7.754;2023-03-14T10:47:57;0.43;;;0.20;;
28605;SDS011;46498;49.968;7.754;2023-03-14T10:53:03;1.17;;;0.40;;
28605;SDS011;46498;49.968;7.754;2023-03-14T10:58:19;1.17;;;0.40;;
28605;SDS011;46498;49.968;7.754;2023-03-14T11:03:25;0.10;;;0.10;;
28605;SDS011;46498;49.968;7.754;2023-03-14T11:17:15;0.10;;;0.08;;
28605;SDS011;46498;49.968;7.754;2023-03-14T11:22:49;0.20;;;0.10;;
28605;SDS011;46498;49.968;7.754;2023-03-14T11:28:49;0.10;;;0.10;;
28605;SDS011;46498;49.968;7.754;2023-03-14T11:33:55;0.57;;;0.20;;
28605;SDS011;46498;49.968;7.754;2023-03-14T11:39:17;0.93;;;0.30;;
28605;SDS011;46498;49.968;7.754;2023-03-14T11:44:20;0.88;;;0.20;;
28605;SDS011;46498;49.968;7.754;2023-03-14T11:55:58;0.88;;;0.10;;
28605;SDS011;46498;49.968;7.754;2023-03-14T12:01:01;0.32;;;0.20;;
28605;SDS011;46498;49.968;7.754;2023-03-14T12:06:32;0.82;;;0.30;;
28605;SDS011;46498;49.968;7.754;2023-03-14T12:11:43;0.30;;;0.10;;
28605;SDS011;46498;49.968;7.754;2023-03-14T12:17:40;0.45;;;0.30;;
28605;SDS011;46498;49.968;7.754;2023-03-14T12:22:44;0.82;;;0.47;;
28605;SDS011;46498;49.968;7.754;2023-03-14T12:27:49;0.30;;;0.20;;
28605;SDS011;46498;49.968;7.754;2023-03-14T12:38:58;0.62;;;0.50;;
28605;SDS011;46498;49.968;7.754;2023-03-14T12:49:49;5.65;;;3.05;;
28605;SDS011;46498;49.968;7.754;2023-03-14T12:54:57;2.17;;;1.10;;
28605;SDS011;46498;49.968;7.754;2023-03-14T13:00:20;6.12;;;2.33;;
28605;SDS011;46498;49.968;7.754;2023-03-14T13:05:22;4.15;;;2.20;;
28605;SDS011;46498;49.968;7.754;2023-03-14T13:10:28;6.25;;;2.90;;
28605;SDS011;46498;49.968;7.754;2023-03-14T13:15:43;2.07;;;1.60;;
28605;SDS011;46498;49.968;7.754;2023-03-14T13:20:55;2.67;;;1.60;;
28605;SDS011;46498;49.968;7.754;2023-03-14T13:26:00;2.67;;;1.60;;
28605;SDS011;46498;49.968;7.754;2023-03-14T13:31:02;2.97;;;1.52;;
28605;SDS011;46498;49.968;7.754;2023-03-14T13:36:04;4.25;;;1.90;;
28605;SDS011;46498;49.968;7.754;2023-03-14T13:41:06;3.43;;;1.40;;
28605;SDS011;46498;49.968;7.754;2023-03-14T13:46:15;3.17;;;1.00;;
28605;SDS011;46498;49.968;7.754;2023-03-14T13:51:26;5.28;;;1.70;;
28605;SDS011;46498;49.968;7.754;2023-03-14T13:56:32;3.40;;;1.62;;
28605;SDS011;46498;49.968;7.754;2023-03-14T14:01:34;3.22;;;1.60;;
28605;SDS011;46498;49.968;7.754;2023-03-14T14:06:38;5.70;;;1.73;;
28605;SDS011;46498;49.968;7.754;2023-03-14T14:12:05;5.10;;;1.50;;
28605;SDS011;46498;49.968;7.754;2023-03-14T14:17:21;2.90;;;1.60;;
28605;SDS011;46498;49.968;7.754;2023-03-14T14:22:27;3.47;;;1.62;;
28605;SDS011;46498;49.968;7.754;2023-03-14T14:27:37;5.32;;;1.95;;
28605;SDS011;46498;49.968;7.754;2023-03-14T14:32:41;5.97;;;1.25;;
28605;SDS011;46498;49.968;7.754;2023-03-14T14:37:43;3.92;;;1.40;;
28605;SDS011;46498;49.968;7.754;2023-03-14T14:42:45;9.63;;;1.40;;
28605;SDS011;46498;49.968;7.754;2023-03-14T14:47:53;3.70;;;1.00;;
28605;SDS011;46498;49.968;7.754;2023-03-14T14:52:56;3.70;;;1.25;;
28605;SDS011;46498;49.968;7.754;2023-03-14T14:57:59;3.50;;;2.15;;
28605;SDS011;46498;49.968;7.754;2023-03-14T15:04:01;9.73;;;3.62;;
28605;SDS011;46498;49.968;7.754;2023-03-14T15:09:02;5.05;;;1.23;;
28605;SDS011;46498;49.968;7.754;2023-03-14T15:14:03;3.12;;;1.15;;
28605;SDS011;46498;49.968;7.754;2023-03-14T15:19:19;1.87;;;0.77;;
28605;SDS011;46498;49.968;7.754;2023-03-14T15:24:26;7.25;;;1.20;;
28605;SDS011;46498;49.968;7.754;2023-03-14T15:29:27;5.12;;;1.00;;
28605;SDS011;46498;49.968;7.754;2023-03-14T15:34:30;3.65;;;1.20;;
28605;SDS011;46498;49.968;7.754;2023-03-14T15:39:31;8.13;;;1.02;;
28605;SDS011;46498;49.968;7.754;2023-03-14T15:44:32;8.02;;;1.05;;
28605;SDS011;46498;49.968;7.754;2023-03-14T15:49:33;5.03;;;0.88;;
28605;SDS011;46498;49.968;7.754;2023-03-14T15:54:34;4.18;;;1.15;;
28605;SDS011;46498;49.968;7.754;2023-03-14T15:59:35;8.55;;;2.03;;
28605;SDS011;46498;49.968;7.754;2023-03-14T16:04:36;7.20;;;0.95;;
28605;SDS011;46498;49.968;7.754;2023-03-14T16:09:37;4.68;;;1.27;;
28605;SDS011;46498;49.968;7.754;2023-03-14T16:14:38;13.05;;;2.53;;
28605;SDS011;46498;49.968;7.754;2023-03-14T16:19:43;7.32;;;1.08;;
28605;SDS011;46498;49.968;7.754;2023-03-14T16:24:44;8.88;;;3.10;;
28605;SDS011;46498;49.968;7.754;2023-03-14T16:29:45;5.93;;;1.50;;
28605;SDS011;46498;49.968;7.754;2023-03-14T16:34:48;6.78;;;2.72;;
28605;SDS011;46498;49.968;7.754;2023-03-14T16:39:48;10.95;;;4.43;;
28605;SDS011;46498;49.968;7.754;2023-03-14T16:45:11;4.72;;;1.70;;
28605;SDS011;46498;49.968;7.754;2023-03-14T16:50:12;10.60;;;3.87;;
28605;SDS011;46498;49.968;7.754;2023-03-14T16:55:13;10.48;;;1.87;;
28605;SDS011;46498;49.968;7.754;2023-03-14T17:00:14;3.87;;;0.90;;
28605;SDS011;46498;49.968;7.754;2023-03-14T17:05:16;8.95;;;1.90;;
28605;SDS011;46498;49.968;7.754;2023-03-14T17:10:17;5.12;;;1.40;;
28605;SDS011;46498;49.968;7.754;2023-03-14T17:15:18;4.45;;;2.22;;
28605;SDS011;46498;49.968;7.754;2023-03-14T17:20:19;3.83;;;1.58;;
28605;SDS011;46498;49.968;7.754;2023-03-14T17:25:20;8.98;;;2.65;;
28605;SDS011;46498;49.968;7.754;2023-03-14T17:30:21;12.77;;;8.10;;
28605;SDS011;46498;49.968;7.754;2023-03-14T17:35:22;1.70;;;0.52;;
28605;SDS011;46498;49.968;7.754;2023-03-14T17:40:22;0.35;;;0.20;;
28605;SDS011;46498;49.968;7.754;2023-03-14T17:45:24;1.08;;;0.50;;
28605;SDS011;46498;49.968;7.754;2023-03-14T17:50:25;2.35;;;0.60;;
28605;SDS011;46498;49.968;7.754;2023-03-14T17:55:26;15.90;;;5.00;;
28605;SDS011;46498;49.968;7.754;2023-03-14T18:00:27;23.38;;;9.40;;
28605;SDS011;46498;49.968;7.754;2023-03-14T18:05:27;10.52;;;3.00;;
28605;SDS011;46498;49.968;7.754;2023-03-14T18:10:28;7.53;;;1.77;;
28605;SDS011;46498;49.968;7.754;2023-03-14T18:15:29;10.90;;;2.35;;
28605;SDS011;46498;49.968;7.754;2023-03-14T18:20:33;10.95;;;2.85;;
28605;SDS011;46498;49.968;7.754;2023-03-14T18:25:34;9.73;;;2.10;;
28605;SDS011;46498;49.968;7.754;2023-03-14T18:30:35;15.80;;;3.25;;
28605;SDS011;46498;49.968;7.754;2023-03-14T18:35:36;12.23;;;2.72;;
28605;SDS011;46498;49.968;7.754;2023-03-14T18:40:37;10.57;;;3.53;;
28605;SDS011;46498;49.968;7.754;2023-03-14T18:45:38;14.00;;;3.35;;
28605;SDS011;46498;49.968;7.754;2023-03-14T18:50:40;10.20;;;2.55;;
28605;SDS011;46498;49.968;7.754;2023-03-14T18:55:41;12.00;;;2.75;;
28605;SDS011;46498;49.968;7.754;2023-03-14T19:00:42;10.43;;;2.50;;
28605;SDS011;46498;49.968;7.754;2023-03-14T19:05:43;9.52;;;2.70;;
28605;SDS011;46498;49.968;7.754;2023-03-14T19:10:44;12.75;;;1.85;;
28605;SDS011;46498;49.968;7.754;2023-03-14T19:15:45;10.20;;;1.83;;
28605;SDS011;46498;49.968;7.754;2023-03-14T19:20:54;11.70;;;4.20;;
28605;SDS011;46498;49.968;7.754;2023-03-14T19:31:02;10.82;;;3.90;;
28605;SDS011;46498;49.968;7.754;2023-03-14T19:36:04;39.88;;;15.30;;
28605;SDS011;46498;49.968;7.754;2023-03-14T19:41:05;16.25;;;5.05;;
28605;SDS011;46498;49.968;7.754;2023-03-14T19:46:06;27.23;;;10.82;;
28605;SDS011;46498;49.968;7.754;2023-03-14T19:51:07;11.10;;;4.53;;
28605;SDS011;46498;49.968;7.754;2023-03-14T19:56:09;16.27;;;3.70;;
28605;SDS011;46498;49.968;7.754;2023-03-14T20:01:11;18.52;;;5.60;;
28605;SDS011;46498;49.968;7.754;2023-03-14T20:06:12;11.60;;;4.12;;
28605;SDS011;46498;49.968;7.754;2023-03-14T20:11:13;20.27;;;5.78;;
28605;SDS011;46498;49.968;7.754;2023-03-14T20:16:14;9.88;;;3.00;;
28605;SDS011;46498;49.968;7.754;2023-03-14T20:21:15;10.30;;;2.55;;
28605;SDS011;46498;49.968;7.754;2023-03-14T20:26:16;10.20;;;2.50;;
28605;SDS011;46498;49.968;7.754;2023-03-14T20:31:17;11.88;;;2.53;;
28605;SDS011;46498;49.968;7.754;2023-03-14T20:36:18;13.13;;;2.97;;
28605;SDS011;46498;49.968;7.754;2023-03-14T20:41:19;5.85;;;2.20;;
28605;SDS011;46498;49.968;7.754;2023-03-14T20:46:20;10.10;;;2.40;;
28605;SDS011;46498;49.968;7.754;2023-03-14T20:51:20;16.08;;;2.03;;
28605;SDS011;46498;49.968;7.754;2023-03-14T20:56:21;18.70;;;3.47;;
28605;SDS011;46498;49.968;7.754;2023-03-14T21:01:22;17.70;;;2.47;;
28605;SDS011;46498;49.968;7.754;2023-03-14T21:06:23;17.90;;;2.08;;
28605;SDS011;46498;49.968;7.754;2023-03-14T21:11:25;9.27;;;1.90;;
28605;SDS011;46498;49.968;7.754;2023-03-14T21:16:26;10.32;;;1.90;;
28605;SDS011;46498;49.968;7.754;2023-03-14T21:21:27;7.05;;;1.33;;
28605;SDS011;46498;49.968;7.754;2023-03-14T21:26:28;10.70;;;2.12;;
28605;SDS011;46498;49.968;7.754;2023-03-14T21:31:32;9.45;;;1.67;;
28605;SDS011;46498;49.968;7.754;2023-03-14T21:36:33;19.50;;;2.08;;
28605;SDS011;46498;49.968;7.754;2023-03-14T21:41:33;17.40;;;2.67;;
28605;SDS011;46498;49.968;7.754;2023-03-14T21:46:34;16.70;;;2.40;;
28605;SDS011;46498;49.968;7.754;2023-03-14T21:51:35;19.35;;;3.85;;
28605;SDS011;46498;49.968;7.754;2023-03-14T21:56:36;16.73;;;3.70;;
28605;SDS011;46498;49.968;7.754;2023-03-14T22:01:37;23.48;;;5.40;;
28605;SDS011;46498;49.968;7.754;2023-03-14T22:06:38;12.18;;;3.17;;
28605;SDS011;46498;49.968;7.754;2023-03-14T22:11:39;13.13;;;3.15;;
28605;SDS011;46498;49.968;7.754;2023-03-14T22:16:40;14.98;;;2.37;;
28605;SDS011;46498;49.968;7.754;2023-03-14T22:21:41;14.10;;;2.22;;
28605;SDS011;46498;49.968;7.754;2023-03-14T22:26:42;22.73;;;3.92;;
28605;SDS011;46498;49.968;7.754;2023-03-14T22:31:43;33.08;;;5.60;;
28605;SDS011;46498;49.968;7.754;2023-03-14T22:36:44;28.67;;;4.78;;
28605;SDS011;46498;49.968;7.754;2023-03-14T22:41:45;22.95;;;4.03;;
28605;SDS011;46498;49.968;7.754;2023-03-14T22:46:46;22.33;;;3.60;;
28605;SDS011;46498;49.968;7.754;2023-03-14T22:51:46;15.88;;;3.03;;
28605;SDS011;46498;49.968;7.754;2023-03-14T22:56:47;17.85;;;3.00;;
28605;SDS011;46498;49.968;7.754;2023-03-14T23:01:48;17.98;;;2.17;;
28605;SDS011;46498;49.968;7.754;2023-03-14T23:06:49;11.02;;;1.85;;
28605;SDS011;46498;49.968;7.754;2023-03-14T23:11:50;14.00;;;2.67;;
28605;SDS011;46498;49.968;7.754;2023-03-14T23:16:51;14.02;;;2.92;;
28605;SDS011;46498;49.968;7.754;2023-03-14T23:21:55;15.38;;;3.65;;
28605;SDS011;46498;49.968;7.754;2023-03-14T23:26:56;16.95;;;3.65;;
28605;SDS011;46498;49.968;7.754;2023-03-14T23:31:57;19.98;;;3.17;;
28605;SDS011;46498;49.968;7.754;2023-03-14T23:36:57;13.57;;;3.72;;
28605;SDS011;46498;49.968;7.754;2023-03-14T23:41:58;11.00;;;2.50;;
28605;SDS011;46498;49.968;7.754;2023-03-14T23:46:59;14.05;;;2.83;;
28605;SDS011;46498;49.968;7.754;2023-03-14T23:52:01;17.83;;;3.75;;
28605;SDS011;46498;49.968;7.754;2023-03-14T23:57:02;14.45;;;2.92;;
